createdAt,value
2018-11-07T00:01:52.348Z,7.80
2018-11-07T00:04:20.521Z,7.97
2018-11-07T00:06:48.646Z,7.43
2018-11-07T00:09:16.743Z,7.60
2018-11-07T00:11:44.993Z,6.70
2018-11-07T00:14:13.111Z,6.67
2018-11-07T00:16:41.299Z,6.40
2018-11-07T00:19:09.473Z,6.70
2018-11-07T00:21:37.591Z,6.67
2018-11-07T00:24:05.703Z,6.73
2018-11-07T00:26:33.904Z,6.03
2018-11-07T00:29:02.058Z,6.20
2018-11-07T00:31:30.178Z,5.73
2018-11-07T00:33:58.289Z,5.70
2018-11-07T00:36:26.482Z,5.80
2018-11-07T00:38:54.643Z,5.83
2018-11-07T00:41:22.811Z,5.80
2018-11-07T00:43:51.100Z,5.70
2018-11-07T00:46:19.213Z,5.90
2018-11-07T00:48:47.377Z,5.67
2018-11-07T00:51:15.528Z,5.37
2018-11-07T00:53:43.658Z,6.20
2018-11-07T00:56:12.063Z,5.33
2018-11-07T00:58:40.173Z,5.20
2018-11-07T01:01:08.306Z,5.10
2018-11-07T01:03:36.426Z,5.17
2018-11-07T01:06:04.541Z,4.60
2018-11-07T01:08:32.751Z,4.67
2018-11-07T01:11:00.900Z,4.87
2018-11-07T01:13:29.021Z,4.63
2018-11-07T01:15:57.191Z,5.43
2018-11-07T01:18:25.338Z,5.10
2018-11-07T01:20:53.431Z,5.10
2018-11-07T01:23:21.625Z,5.23
2018-11-07T01:25:49.743Z,5.10
2018-11-07T01:28:17.980Z,5.47
2018-11-07T01:30:45.997Z,5.57
2018-11-07T01:33:14.099Z,5.50
2018-11-07T01:35:42.239Z,5.43
2018-11-07T01:38:10.512Z,5.80
2018-11-07T01:40:38.603Z,6.50
2018-11-07T01:43:06.695Z,6.20
2018-11-07T01:45:34.833Z,6.30
2018-11-07T01:48:02.945Z,6.00
2018-11-07T01:50:31.049Z,6.23
2018-11-07T01:52:59.154Z,6.40
2018-11-07T01:55:27.259Z,5.77
2018-11-07T01:57:55.359Z,6.43
2018-11-07T02:00:23.549Z,5.57
2018-11-07T02:02:51.682Z,5.40
2018-11-07T02:05:19.788Z,5.80
2018-11-07T02:07:47.903Z,6.83
2018-11-07T02:10:16.035Z,6.67
2018-11-07T02:12:44.139Z,6.50
2018-11-07T02:15:12.301Z,7.57
2018-11-07T02:17:40.773Z,7.47
2018-11-07T02:20:09.579Z,6.93
2018-11-07T02:22:37.780Z,7.00
2018-11-07T02:25:06.113Z,7.07
2018-11-07T02:27:34.302Z,6.53
2018-11-07T02:30:02.467Z,7.60
2018-11-07T02:32:30.563Z,7.23
2018-11-07T02:34:58.731Z,6.57
2018-11-07T02:37:26.899Z,6.60
2018-11-07T02:39:55.068Z,6.83
2018-11-07T02:42:23.166Z,6.87
2018-11-07T02:44:51.307Z,7.07
2018-11-07T02:47:19.399Z,6.47
2018-11-07T02:49:47.488Z,6.30
2018-11-07T02:52:15.602Z,6.40
2018-11-07T02:54:43.837Z,5.40
2018-11-07T02:57:11.942Z,5.60
2018-11-07T02:59:40.051Z,5.03
2018-11-07T03:02:08.152Z,4.23
2018-11-07T03:04:36.280Z,4.47
2018-11-07T03:07:04.379Z,4.17
2018-11-07T03:09:32.547Z,3.90
2018-11-07T03:12:00.739Z,4.73
2018-11-07T03:14:28.866Z,3.77
2018-11-07T03:16:56.988Z,3.70
2018-11-07T03:19:25.232Z,4.13
2018-11-07T03:21:53.333Z,3.97
2018-11-07T03:24:21.466Z,3.90
2018-11-07T03:26:49.583Z,3.90
2018-11-07T03:29:17.728Z,3.73
2018-11-07T03:31:45.822Z,3.93
2018-11-07T03:34:14.163Z,3.63
2018-11-07T03:36:42.257Z,3.80
2018-11-07T03:39:11.543Z,4.37
2018-11-07T03:41:39.735Z,3.97
2018-11-07T03:44:08.904Z,3.73
2018-11-07T03:46:37.036Z,3.67
2018-11-07T03:49:05.290Z,3.93
2018-11-07T03:51:33.405Z,3.80
2018-11-07T03:54:01.514Z,3.40
2018-11-07T03:56:29.670Z,3.40
2018-11-07T03:58:57.788Z,3.90
2018-11-07T04:01:25.915Z,3.73
2018-11-07T04:03:54.039Z,3.50
2018-11-07T04:06:22.471Z,3.47
2018-11-07T04:08:50.572Z,3.50
2018-11-07T04:11:18.727Z,3.00
2018-11-07T04:13:46.815Z,3.20
2018-11-07T04:16:14.975Z,3.40
2018-11-07T04:18:43.156Z,3.20
2018-11-07T04:21:11.423Z,3.37
2018-11-07T04:23:39.602Z,3.67
2018-11-07T04:26:07.766Z,3.30
2018-11-07T04:28:35.912Z,3.90
2018-11-07T04:31:04.023Z,3.40
2018-11-07T04:33:32.189Z,3.80
2018-11-07T04:36:00.294Z,3.63
2018-11-07T04:38:28.545Z,3.83
2018-11-07T04:40:56.713Z,3.40
2018-11-07T04:43:25.138Z,3.60
2018-11-07T04:45:53.576Z,3.43
2018-11-07T04:48:21.993Z,3.10
2018-11-07T04:50:50.400Z,3.43
2018-11-07T04:53:18.819Z,3.63
2018-11-07T04:55:47.243Z,3.47
2018-11-07T04:58:15.354Z,3.03
2018-11-07T05:00:43.489Z,3.17
2018-11-07T05:03:11.600Z,3.33
2018-11-07T05:05:39.695Z,2.80
2018-11-07T05:08:07.835Z,3.30
2018-11-07T05:10:35.953Z,3.30
2018-11-07T05:13:04.089Z,3.00
2018-11-07T05:15:33.044Z,3.40
2018-11-07T05:18:01.170Z,3.30
2018-11-07T05:20:29.274Z,3.20
2018-11-07T05:22:57.406Z,3.37
2018-11-07T05:25:25.513Z,3.10
2018-11-07T05:27:53.647Z,3.47
2018-11-07T05:30:21.815Z,3.53
2018-11-07T05:32:49.939Z,3.30
2018-11-07T05:35:18.108Z,3.60
2018-11-07T05:37:46.417Z,3.30
2018-11-07T05:40:14.527Z,3.30
2018-11-07T05:42:42.679Z,3.47
2018-11-07T05:45:10.801Z,4.07
2018-11-07T05:47:39.155Z,3.20
2018-11-07T05:50:07.925Z,3.67
2018-11-07T05:52:36.315Z,3.33
2018-11-07T05:55:04.929Z,3.37
2018-11-07T05:57:33.066Z,3.57
2018-11-07T06:00:01.174Z,3.70
2018-11-07T06:02:29.354Z,3.80
2018-11-07T06:04:57.494Z,4.10
2018-11-07T06:07:25.656Z,3.60
2018-11-07T06:09:53.871Z,3.33
2018-11-07T06:12:21.998Z,3.77
2018-11-07T06:14:50.123Z,3.60
2018-11-07T06:17:18.293Z,4.07
2018-11-07T06:19:46.420Z,4.00
2018-11-07T06:22:14.536Z,4.03
2018-11-07T06:24:42.726Z,4.23
2018-11-07T06:27:10.844Z,4.47
2018-11-07T06:29:38.927Z,4.30
2018-11-07T06:32:07.054Z,4.10
2018-11-07T06:34:35.154Z,4.30
2018-11-07T06:37:03.335Z,3.73
2018-11-07T06:39:31.515Z,4.13
2018-11-07T06:41:59.707Z,4.17
2018-11-07T06:44:27.898Z,3.83
2018-11-07T06:46:55.948Z,4.20
2018-11-07T06:49:24.122Z,4.27
2018-11-07T06:51:52.284Z,4.40
2018-11-07T06:54:20.376Z,3.70
2018-11-07T06:56:48.535Z,4.30
2018-11-07T06:59:16.640Z,4.20
2018-11-07T07:01:44.763Z,3.93
2018-11-07T07:04:12.872Z,3.93
2018-11-07T07:06:40.995Z,3.60
2018-11-07T07:09:10.020Z,4.00
2018-11-07T07:11:38.292Z,4.20
2018-11-07T07:14:06.606Z,4.80
2018-11-07T07:16:35.562Z,4.20
2018-11-07T07:19:03.795Z,4.07
2018-11-07T07:21:32.411Z,4.13
2018-11-07T07:24:01.315Z,3.97
2018-11-07T07:26:30.328Z,4.40
2018-11-07T07:28:58.724Z,4.00
2018-11-07T07:31:27.773Z,3.80
2018-11-07T07:33:55.858Z,3.30
2018-11-07T07:36:24.255Z,4.10
2018-11-07T07:38:53.082Z,3.50
2018-11-07T07:41:21.852Z,3.70
2018-11-07T07:43:49.956Z,3.83
2018-11-07T07:46:18.148Z,3.83
2018-11-07T07:48:46.243Z,3.83
2018-11-07T07:51:14.391Z,3.40
2018-11-07T07:53:42.540Z,3.37
2018-11-07T07:56:10.639Z,3.57
2018-11-07T07:58:38.841Z,3.77
2018-11-07T08:01:06.955Z,3.27
2018-11-07T08:03:35.064Z,3.53
2018-11-07T08:06:03.157Z,3.80
2018-11-07T08:08:31.364Z,3.20
2018-11-07T08:10:59.611Z,3.27
2018-11-07T08:13:27.764Z,3.63
2018-11-07T08:15:55.832Z,3.20
2018-11-07T08:18:24.014Z,3.27
2018-11-07T08:20:52.131Z,3.23
2018-11-07T08:23:20.292Z,2.80
2018-11-07T08:25:48.418Z,3.27
2018-11-07T08:28:16.516Z,2.97
2018-11-07T08:30:44.700Z,3.33
2018-11-07T08:33:12.762Z,2.80
2018-11-07T08:35:40.921Z,2.90
2018-11-07T08:38:09.208Z,3.23
2018-11-07T08:40:37.367Z,3.00
2018-11-07T08:43:05.463Z,2.80
2018-11-07T08:45:33.602Z,3.10
2018-11-07T08:48:01.739Z,3.13
2018-11-07T08:50:29.871Z,2.90
2018-11-07T08:52:57.963Z,3.10
2018-11-07T08:55:26.065Z,3.10
2018-11-07T08:57:54.154Z,2.73
2018-11-07T09:00:23.382Z,2.80
2018-11-07T09:02:51.562Z,2.77
2018-11-07T09:05:20.428Z,2.73
2018-11-07T09:07:48.820Z,2.77
2018-11-07T09:10:19.130Z,2.73
2018-11-07T09:12:47.215Z,2.80
2018-11-07T09:15:16.686Z,2.90
2018-11-07T09:17:44.783Z,3.00
2018-11-07T09:20:16.571Z,2.50
2018-11-07T09:22:44.763Z,2.80
2018-11-07T09:25:13.619Z,2.80
2018-11-07T09:27:41.911Z,2.97
2018-11-07T09:30:10.772Z,3.20
2018-11-07T09:32:38.969Z,3.43
2018-11-07T09:35:07.831Z,3.33
2018-11-07T09:37:35.955Z,3.20
2018-11-07T09:40:04.497Z,2.77
2018-11-07T09:42:32.591Z,3.00
2018-11-07T09:45:00.739Z,3.10
2018-11-07T09:47:28.831Z,2.90
2018-11-07T09:49:56.957Z,2.70
2018-11-07T09:52:25.050Z,2.80
2018-11-07T09:54:53.234Z,3.27
2018-11-07T09:57:21.319Z,3.30
2018-11-07T09:59:49.471Z,3.17
2018-11-07T10:02:17.564Z,2.93
2018-11-07T10:04:45.696Z,3.00
2018-11-07T10:07:13.804Z,3.40
2018-11-07T10:09:41.931Z,2.97
2018-11-07T10:12:10.113Z,3.10
2018-11-07T10:14:38.207Z,3.20
2018-11-07T10:17:06.380Z,3.07
2018-11-07T10:19:34.479Z,2.77
2018-11-07T10:22:02.616Z,2.80
2018-11-07T10:24:30.963Z,3.53
2018-11-07T10:27:01.168Z,2.80
2018-11-07T10:29:30.056Z,3.07
2018-11-07T10:31:58.296Z,2.90
2018-11-07T10:34:26.774Z,2.80
2018-11-07T10:39:22.975Z,2.70
2018-11-07T10:41:51.363Z,3.03
2018-11-07T10:44:20.024Z,2.90
2018-11-07T10:46:48.409Z,3.20
2018-11-07T10:49:16.711Z,3.40
2018-11-07T10:51:44.958Z,2.80
2018-11-07T11:01:04.725Z,3.30
2018-11-07T11:03:33.053Z,3.03
2018-11-07T11:06:01.180Z,3.00
2018-11-07T11:08:29.314Z,3.60
2018-11-07T11:10:57.540Z,3.10
2018-11-07T11:13:25.902Z,2.70
2018-11-07T11:15:54.000Z,3.33
2018-11-07T11:18:22.139Z,3.40
2018-11-07T11:20:50.271Z,3.47
2018-11-07T11:23:18.507Z,3.10
2018-11-07T11:25:47.369Z,3.50
2018-11-07T11:28:15.685Z,3.60
2018-11-07T11:30:43.999Z,3.20
2018-11-07T11:33:12.643Z,3.57
2018-11-07T11:35:43.876Z,3.60
2018-11-07T11:38:12.051Z,3.87
2018-11-07T11:40:40.535Z,4.30
2018-11-07T11:43:08.643Z,3.60
2018-11-07T11:45:37.087Z,3.50
2018-11-07T11:48:05.268Z,3.80
2018-11-07T11:50:33.464Z,3.73
2018-11-07T11:53:02.935Z,3.20
2018-11-07T11:55:31.031Z,3.67
2018-11-07T11:57:59.293Z,3.20
2018-11-07T12:00:27.746Z,3.20
2018-11-07T12:02:55.858Z,3.30
2018-11-07T12:05:24.106Z,3.27
2018-11-07T12:07:53.041Z,2.67
2018-11-07T12:10:23.260Z,2.77
2018-11-07T12:12:52.961Z,2.60
2018-11-07T12:15:22.552Z,2.77
2018-11-07T12:17:51.050Z,3.10
2018-11-07T12:20:19.366Z,2.27
2018-11-07T12:22:47.600Z,2.87
2018-11-07T12:25:16.522Z,2.70
2018-11-07T12:27:44.784Z,3.20
2018-11-07T12:30:14.490Z,3.50
2018-11-07T12:32:44.460Z,3.30
2018-11-07T12:35:13.701Z,3.13
2018-11-07T12:37:42.245Z,3.13
2018-11-07T12:40:11.308Z,3.03
2018-11-07T12:42:39.553Z,3.70
2018-11-07T12:45:08.479Z,3.40
2018-11-07T12:47:37.474Z,3.70
2018-11-07T12:50:07.751Z,3.90
2018-11-07T12:52:35.892Z,3.90
2018-11-07T12:55:04.603Z,3.93
2018-11-07T12:57:33.215Z,3.90
2018-11-07T13:00:01.279Z,3.70
2018-11-07T13:02:29.419Z,3.83
2018-11-07T13:04:57.514Z,4.07
2018-11-07T13:07:25.671Z,4.17
2018-11-07T13:09:53.870Z,4.03
2018-11-07T13:12:22.114Z,4.20
2018-11-07T13:14:50.480Z,3.57
2018-11-07T13:17:18.740Z,4.10
2018-11-07T13:19:46.998Z,4.17
2018-11-07T13:22:15.565Z,3.73
2018-11-07T13:24:44.767Z,4.43
2018-11-07T13:27:13.032Z,4.40
2018-11-07T13:29:41.219Z,4.77
2018-11-07T13:32:09.371Z,4.97
2018-11-07T13:34:37.691Z,4.57
2018-11-07T13:37:06.121Z,4.77
2018-11-07T13:39:34.548Z,4.83
2018-11-07T13:42:02.649Z,4.80
2018-11-07T13:44:31.480Z,4.30
2018-11-07T13:47:00.186Z,4.53
2018-11-07T13:49:28.861Z,4.43
2018-11-07T13:51:57.223Z,4.37
2018-11-07T13:54:25.589Z,4.40
2018-11-07T13:56:53.738Z,4.37
2018-11-07T13:59:22.083Z,4.20
2018-11-07T14:01:50.172Z,4.07
2018-11-07T14:04:18.280Z,4.33
2018-11-07T14:06:46.377Z,4.30
2018-11-07T14:09:14.483Z,4.57
2018-11-07T14:11:42.599Z,4.40
2018-11-07T14:14:10.697Z,4.60
2018-11-07T14:16:38.837Z,4.20
2018-11-07T14:19:07.192Z,4.37
2018-11-07T14:21:35.295Z,4.40
2018-11-07T14:24:03.643Z,4.00
2018-11-07T14:26:31.787Z,3.90
2018-11-07T14:29:00.191Z,4.07
2018-11-07T14:31:28.354Z,4.60
2018-11-07T14:33:56.475Z,4.77
2018-11-07T14:36:24.615Z,4.97
2018-11-07T14:38:52.873Z,4.03
2018-11-07T14:41:20.950Z,4.33
2018-11-07T14:43:49.290Z,4.13
2018-11-07T14:46:17.456Z,4.60
2018-11-07T14:48:45.627Z,4.80
2018-11-07T14:51:13.771Z,4.43
2018-11-07T14:53:42.091Z,4.90
2018-11-07T14:56:10.216Z,4.90
2018-11-07T14:58:39.470Z,4.80
2018-11-07T15:01:08.431Z,4.97
2018-11-07T15:03:36.811Z,5.30
2018-11-07T15:06:05.307Z,5.23
2018-11-07T15:08:33.551Z,4.83
2018-11-07T15:11:01.681Z,4.57
2018-11-07T15:13:30.260Z,4.37
2018-11-07T15:15:58.467Z,3.80
2018-11-07T15:18:27.059Z,4.03
2018-11-07T15:20:55.301Z,3.90
2018-11-07T15:23:23.595Z,4.03
2018-11-07T15:25:52.299Z,3.70
2018-11-07T15:28:20.594Z,3.73
2018-11-07T15:30:48.735Z,3.70
2018-11-07T15:33:16.904Z,3.30
2018-11-07T15:35:45.117Z,3.67
2018-11-07T15:38:13.263Z,3.60
2018-11-07T15:40:41.368Z,3.67
2018-11-07T15:43:09.569Z,3.87
2018-11-07T15:45:37.709Z,3.97
2018-11-07T15:48:05.836Z,4.00
2018-11-07T15:50:39.436Z,3.73
2018-11-07T15:53:07.645Z,4.07
2018-11-07T15:55:35.845Z,4.40
2018-11-07T15:58:04.087Z,4.63
2018-11-07T16:00:32.236Z,4.70
2018-11-07T16:03:00.356Z,4.30
2018-11-07T16:05:28.677Z,4.67
2018-11-07T16:07:56.853Z,4.67
2018-11-07T16:10:25.038Z,5.17
2018-11-07T16:12:53.142Z,5.87
2018-11-07T16:15:21.380Z,5.67
2018-11-07T16:17:49.611Z,6.37
2018-11-07T16:20:19.283Z,6.37
2018-11-07T16:22:48.451Z,6.07
2018-11-07T16:25:16.668Z,6.43
2018-11-07T16:27:45.238Z,6.23
2018-11-07T16:30:16.941Z,7.13
2018-11-07T16:32:45.265Z,6.93
2018-11-07T16:35:13.966Z,6.07
2018-11-07T16:37:42.418Z,6.53
2018-11-07T16:40:12.915Z,6.50
2018-11-07T16:42:41.805Z,6.30
2018-11-07T16:45:11.064Z,6.80
2018-11-07T16:47:39.171Z,7.33
2018-11-07T16:50:07.915Z,6.83
2018-11-07T16:52:36.118Z,6.87
2018-11-07T16:55:04.162Z,6.90
2018-11-07T16:57:32.260Z,7.10
2018-11-07T17:00:00.459Z,6.63
2018-11-07T17:02:28.603Z,6.00
2018-11-07T17:04:56.733Z,6.13
2018-11-07T17:07:24.845Z,5.80
2018-11-07T17:09:52.934Z,6.30
2018-11-07T17:12:21.063Z,6.13
2018-11-07T17:14:49.151Z,6.33
2018-11-07T17:17:17.304Z,6.27
2018-11-07T17:19:45.489Z,6.60
2018-11-07T17:22:13.578Z,6.87
2018-11-07T17:24:41.871Z,6.50
2018-11-07T17:27:09.979Z,6.13
2018-11-07T17:29:38.111Z,6.87
2018-11-07T17:32:06.228Z,6.73
2018-11-07T17:34:34.326Z,6.47
2018-11-07T17:37:02.458Z,6.43
2018-11-07T17:39:30.529Z,6.07
2018-11-07T17:41:58.659Z,6.83
2018-11-07T17:44:26.760Z,6.67
2018-11-07T17:46:54.857Z,6.33
2018-11-07T17:49:22.995Z,6.63
2018-11-07T17:51:51.179Z,6.77
2018-11-07T17:54:19.298Z,6.57
2018-11-07T17:56:47.404Z,6.17
2018-11-07T17:59:15.551Z,6.63
2018-11-07T18:01:43.624Z,6.03
2018-11-07T18:04:12.236Z,6.13
2018-11-07T18:06:40.400Z,6.20
2018-11-07T18:09:08.975Z,6.97
2018-11-07T18:11:37.250Z,5.83
2018-11-07T18:14:05.747Z,5.27
2018-11-07T18:16:33.858Z,6.20
2018-11-07T18:19:02.046Z,5.60
2018-11-07T18:21:30.082Z,5.13
2018-11-07T18:23:58.157Z,5.50
2018-11-07T18:26:26.262Z,5.27
2018-11-07T18:28:54.354Z,5.13
2018-11-07T18:31:22.438Z,5.23
2018-11-07T18:33:50.570Z,5.77
2018-11-07T18:36:18.699Z,5.37
2018-11-07T18:38:46.794Z,5.03
2018-11-07T18:41:14.922Z,5.10
2018-11-07T18:43:43.396Z,5.47
2018-11-07T18:46:11.496Z,5.17
2018-11-07T18:48:40.705Z,5.70
2018-11-07T18:51:08.857Z,5.70
2018-11-07T18:53:37.029Z,6.10
2018-11-07T18:56:05.194Z,5.57
2018-11-07T18:58:33.368Z,5.40
2018-11-07T19:01:01.437Z,5.80
2018-11-07T19:03:29.606Z,6.33
2018-11-07T19:05:57.728Z,5.87
2018-11-07T19:08:25.847Z,6.00
2018-11-07T19:10:53.972Z,6.40
2018-11-07T19:13:22.106Z,5.97
2018-11-07T19:15:50.273Z,6.27
2018-11-07T19:18:18.443Z,6.10
2018-11-07T19:20:46.557Z,6.40
2018-11-07T19:23:14.692Z,6.00
2018-11-07T19:25:42.801Z,6.03
2018-11-07T19:28:10.911Z,5.87
2018-11-07T19:30:39.011Z,5.67
2018-11-07T19:33:07.143Z,5.43
2018-11-07T19:35:35.228Z,5.40
2018-11-07T19:38:03.358Z,5.60
2018-11-07T19:40:31.469Z,5.53
2018-11-07T19:42:59.571Z,5.63
2018-11-07T19:45:27.655Z,6.27
2018-11-07T19:47:55.764Z,6.60
2018-11-07T19:50:23.978Z,6.70
2018-11-07T19:52:52.492Z,6.63
2018-11-07T19:55:22.030Z,6.40
2018-11-07T19:57:50.890Z,6.83
2018-11-07T20:00:19.031Z,7.00
2018-11-07T20:02:47.607Z,7.30
2018-11-07T20:05:15.889Z,7.43
2018-11-07T20:07:44.240Z,6.47
2018-11-07T20:10:14.080Z,6.63
2018-11-07T20:12:42.247Z,6.40
2018-11-07T20:15:11.892Z,6.83
2018-11-07T20:17:40.057Z,7.20
2018-11-07T20:20:08.191Z,6.70
2018-11-07T20:22:36.433Z,6.73
2018-11-07T20:25:05.171Z,7.07
2018-11-07T20:27:33.281Z,6.80
2018-11-07T20:30:01.420Z,7.63
2018-11-07T20:32:29.716Z,6.50
2018-11-07T20:34:57.831Z,6.87
2018-11-07T20:37:26.100Z,6.47
2018-11-07T20:39:54.220Z,7.30
2018-11-07T20:42:22.643Z,6.60
2018-11-07T20:44:50.791Z,6.00
2018-11-07T20:47:18.921Z,6.20
2018-11-07T20:49:47.032Z,6.73
2018-11-07T20:52:15.211Z,7.07
2018-11-07T20:54:43.430Z,6.40
2018-11-07T20:57:11.492Z,6.50
2018-11-07T20:59:39.608Z,6.43
2018-11-07T21:02:07.725Z,6.60
2018-11-07T21:04:35.851Z,6.63
2018-11-07T21:07:03.945Z,7.00
2018-11-07T21:09:32.120Z,6.20
2018-11-07T21:12:00.270Z,6.87
2018-11-07T21:14:28.776Z,6.33
2018-11-07T21:16:57.010Z,6.60
2018-11-07T21:19:25.023Z,6.20
2018-11-07T21:21:53.170Z,6.47
2018-11-07T21:24:21.260Z,6.57
2018-11-07T21:26:49.519Z,6.33
2018-11-07T21:29:17.590Z,6.20
2018-11-07T21:31:45.701Z,6.43
2018-11-07T21:34:13.943Z,6.13
2018-11-07T21:36:42.135Z,6.27
2018-11-07T21:39:11.337Z,6.53
2018-11-07T21:41:39.781Z,6.27
2018-11-07T21:44:07.912Z,6.70
2018-11-07T21:46:36.043Z,5.97
2018-11-07T21:49:04.194Z,6.80
2018-11-07T21:51:32.411Z,6.43
2018-11-07T21:54:00.670Z,6.37
2018-11-07T21:56:28.791Z,6.10
2018-11-07T21:58:56.919Z,6.23
2018-11-07T22:01:25.111Z,6.40
2018-11-07T22:03:53.232Z,6.33
2018-11-07T22:06:21.339Z,6.20
2018-11-07T22:08:49.507Z,5.83
2018-11-07T22:11:17.594Z,6.33
2018-11-07T22:13:45.734Z,5.93
2018-11-07T22:16:13.834Z,5.60
2018-11-07T22:18:41.986Z,6.90
2018-11-07T22:21:10.094Z,6.73
2018-11-07T22:23:38.226Z,5.80
2018-11-07T22:26:06.331Z,6.17
2018-11-07T22:28:34.483Z,6.23
2018-11-07T22:31:02.624Z,6.17
2018-11-07T22:33:30.731Z,6.47
2018-11-07T22:35:58.845Z,6.10
2018-11-07T22:38:26.971Z,5.60
2018-11-07T22:40:55.143Z,6.40
2018-11-07T22:43:23.234Z,6.00
2018-11-07T22:45:51.346Z,6.30
2018-11-07T22:48:19.475Z,5.93
2018-11-07T22:50:47.791Z,5.50
2018-11-07T22:53:15.901Z,5.73
2018-11-07T22:55:43.998Z,5.70
2018-11-07T22:58:12.202Z,5.60
2018-11-07T23:00:45.752Z,5.53
2018-11-07T23:03:13.856Z,6.00
2018-11-07T23:05:41.956Z,5.33
2018-11-07T23:08:10.075Z,5.67
2018-11-07T23:10:38.200Z,5.40
2018-11-07T23:13:06.283Z,6.07
2018-11-07T23:15:39.834Z,5.47
2018-11-07T23:18:07.927Z,5.67
2018-11-07T23:20:37.090Z,5.77
2018-11-07T23:23:05.355Z,5.73
2018-11-07T23:25:33.509Z,5.63
2018-11-07T23:28:01.617Z,5.87
2018-11-07T23:30:29.719Z,6.03
2018-11-07T23:32:57.896Z,5.87
2018-11-07T23:35:26.024Z,6.20
2018-11-07T23:37:54.207Z,5.97
2018-11-07T23:40:22.286Z,6.00
2018-11-07T23:42:50.382Z,6.00
2018-11-07T23:45:18.499Z,6.43
2018-11-07T23:47:46.706Z,6.27
2018-11-07T23:50:14.814Z,6.27
2018-11-07T23:52:48.275Z,6.07
2018-11-07T23:55:17.385Z,6.00
2018-11-07T23:57:45.528Z,6.20
